sensor_id;sensor_type;location;lat;lon;timestamp;P1;durP1;ratioP1;P2;durP2;ratioP2
62798;SDS011;48842;51.046;13.796;2023-12-28T00:01:04;7.97;;;3.63;;
62798;SDS011;48842;51.046;13.796;2023-12-28T00:03:30;5.37;;;4.00;;
62798;SDS011;48842;51.046;13.796;2023-12-28T00:05:55;4.10;;;3.03;;
62798;SDS011;48842;51.046;13.796;2023-12-28T00:08:20;6.53;;;4.03;;
62798;SDS011;48842;51.046;13.796;2023-12-28T00:10:45;14.20;;;3.60;;
62798;SDS011;48842;51.046;13.796;2023-12-28T00:13:11;3.30;;;3.00;;
62798;SDS011;48842;51.046;13.796;2023-12-28T00:15:36;5.70;;;3.50;;
62798;SDS011;48842;51.046;13.796;2023-12-28T00:18:01;10.37;;;3.63;;
62798;SDS011;48842;51.046;13.796;2023-12-28T00:20:26;4.40;;;3.63;;
62798;SDS011;48842;51.046;13.796;2023-12-28T00:22:52;7.47;;;3.70;;
62798;SDS011;48842;51.046;13.796;2023-12-28T00:25:17;10.07;;;4.03;;
62798;SDS011;48842;51.046;13.796;2023-12-28T00:27:42;19.23;;;3.93;;
62798;SDS011;48842;51.046;13.796;2023-12-28T00:30:07;6.73;;;3.77;;
62798;SDS011;48842;51.046;13.796;2023-12-28T00:32:33;5.77;;;3.87;;
62798;SDS011;48842;51.046;13.796;2023-12-28T00:34:58;5.30;;;3.50;;
62798;SDS011;48842;51.046;13.796;2023-12-28T00:37:23;6.97;;;3.23;;
62798;SDS011;48842;51.046;13.796;2023-12-28T00:39:49;5.63;;;3.33;;
62798;SDS011;48842;51.046;13.796;2023-12-28T00:42:15;5.67;;;3.60;;
62798;SDS011;48842;51.046;13.796;2023-12-28T00:44:40;6.20;;;3.53;;
62798;SDS011;48842;51.046;13.796;2023-12-28T00:47:06;3.93;;;2.90;;
62798;SDS011;48842;51.046;13.796;2023-12-28T00:49:32;5.77;;;3.90;;
62798;SDS011;48842;51.046;13.796;2023-12-28T00:51:57;4.33;;;2.80;;
62798;SDS011;48842;51.046;13.796;2023-12-28T00:54:22;3.50;;;3.00;;
62798;SDS011;48842;51.046;13.796;2023-12-28T00:56:47;6.53;;;3.20;;
62798;SDS011;48842;51.046;13.796;2023-12-28T00:59:13;4.17;;;3.23;;
62798;SDS011;48842;51.046;13.796;2023-12-28T01:01:38;5.80;;;3.30;;
62798;SDS011;48842;51.046;13.796;2023-12-28T01:04:03;4.13;;;3.17;;
62798;SDS011;48842;51.046;13.796;2023-12-28T01:06:28;4.83;;;2.93;;
62798;SDS011;48842;51.046;13.796;2023-12-28T01:08:54;4.03;;;3.63;;
62798;SDS011;48842;51.046;13.796;2023-12-28T01:11:20;10.67;;;5.37;;
62798;SDS011;48842;51.046;13.796;2023-12-28T01:13:45;8.50;;;3.50;;
62798;SDS011;48842;51.046;13.796;2023-12-28T01:16:12;6.20;;;3.73;;
62798;SDS011;48842;51.046;13.796;2023-12-28T01:18:37;3.83;;;3.40;;
62798;SDS011;48842;51.046;13.796;2023-12-28T01:21:03;8.10;;;3.80;;
62798;SDS011;48842;51.046;13.796;2023-12-28T01:23:28;7.03;;;3.77;;
62798;SDS011;48842;51.046;13.796;2023-12-28T01:25:55;7.23;;;3.30;;
62798;SDS011;48842;51.046;13.796;2023-12-28T01:28:21;2.97;;;2.70;;
62798;SDS011;48842;51.046;13.796;2023-12-28T01:30:46;4.63;;;3.27;;
62798;SDS011;48842;51.046;13.796;2023-12-28T01:33:11;4.30;;;3.13;;
62798;SDS011;48842;51.046;13.796;2023-12-28T01:35:37;3.53;;;3.10;;
62798;SDS011;48842;51.046;13.796;2023-12-28T01:38:02;4.13;;;3.43;;
62798;SDS011;48842;51.046;13.796;2023-12-28T01:40:28;4.47;;;3.00;;
62798;SDS011;48842;51.046;13.796;2023-12-28T01:42:53;5.80;;;3.37;;
62798;SDS011;48842;51.046;13.796;2023-12-28T01:45:19;8.83;;;3.40;;
62798;SDS011;48842;51.046;13.796;2023-12-28T01:47:44;3.80;;;3.10;;
62798;SDS011;48842;51.046;13.796;2023-12-28T01:50:10;5.37;;;4.03;;
62798;SDS011;48842;51.046;13.796;2023-12-28T01:52:36;6.37;;;3.40;;
62798;SDS011;48842;51.046;13.796;2023-12-28T01:55:02;4.13;;;2.67;;
62798;SDS011;48842;51.046;13.796;2023-12-28T01:57:28;6.27;;;3.80;;
62798;SDS011;48842;51.046;13.796;2023-12-28T01:59:54;4.37;;;3.10;;
62798;SDS011;48842;51.046;13.796;2023-12-28T02:02:19;5.17;;;3.20;;
62798;SDS011;48842;51.046;13.796;2023-12-28T02:04:46;4.00;;;3.03;;
62798;SDS011;48842;51.046;13.796;2023-12-28T02:07:11;4.80;;;3.00;;
62798;SDS011;48842;51.046;13.796;2023-12-28T02:09:38;6.03;;;3.93;;
62798;SDS011;48842;51.046;13.796;2023-12-28T02:12:03;7.10;;;3.70;;
62798;SDS011;48842;51.046;13.796;2023-12-28T02:14:29;6.43;;;3.37;;
62798;SDS011;48842;51.046;13.796;2023-12-28T02:16:57;12.23;;;3.50;;
62798;SDS011;48842;51.046;13.796;2023-12-28T02:19:54;4.97;;;4.00;;
62798;SDS011;48842;51.046;13.796;2023-12-28T02:22:20;6.93;;;3.67;;
62798;SDS011;48842;51.046;13.796;2023-12-28T02:25:07;7.23;;;3.03;;
62798;SDS011;48842;51.046;13.796;2023-12-28T02:27:34;11.43;;;3.33;;
62798;SDS011;48842;51.046;13.796;2023-12-28T02:30:03;6.27;;;3.17;;
62798;SDS011;48842;51.046;13.796;2023-12-28T02:32:39;6.00;;;3.23;;
62798;SDS011;48842;51.046;13.796;2023-12-28T02:35:09;4.23;;;3.27;;
62798;SDS011;48842;51.046;13.796;2023-12-28T02:37:42;3.30;;;3.00;;
62798;SDS011;48842;51.046;13.796;2023-12-28T02:40:08;4.97;;;3.43;;
62798;SDS011;48842;51.046;13.796;2023-12-28T02:42:34;7.30;;;3.57;;
62798;SDS011;48842;51.046;13.796;2023-12-28T02:44:59;3.40;;;2.80;;
62798;SDS011;48842;51.046;13.796;2023-12-28T02:47:24;5.33;;;2.50;;
62798;SDS011;48842;51.046;13.796;2023-12-28T02:49:50;3.63;;;2.70;;
62798;SDS011;48842;51.046;13.796;2023-12-28T02:52:15;4.73;;;2.93;;
62798;SDS011;48842;51.046;13.796;2023-12-28T02:54:40;6.13;;;3.40;;
62798;SDS011;48842;51.046;13.796;2023-12-28T02:57:05;4.23;;;2.93;;
62798;SDS011;48842;51.046;13.796;2023-12-28T02:59:31;5.00;;;3.10;;
62798;SDS011;48842;51.046;13.796;2023-12-28T03:01:56;6.53;;;2.70;;
62798;SDS011;48842;51.046;13.796;2023-12-28T03:04:21;2.80;;;2.50;;
62798;SDS011;48842;51.046;13.796;2023-12-28T03:06:48;2.80;;;2.60;;
62798;SDS011;48842;51.046;13.796;2023-12-28T03:09:13;4.87;;;2.93;;
62798;SDS011;48842;51.046;13.796;2023-12-28T03:11:38;6.80;;;2.90;;
62798;SDS011;48842;51.046;13.796;2023-12-28T03:14:03;4.40;;;3.03;;
62798;SDS011;48842;51.046;13.796;2023-12-28T03:16:29;2.60;;;2.17;;
62798;SDS011;48842;51.046;13.796;2023-12-28T03:18:54;2.47;;;2.27;;
62798;SDS011;48842;51.046;13.796;2023-12-28T03:21:19;3.10;;;2.20;;
62798;SDS011;48842;51.046;13.796;2023-12-28T03:23:44;3.43;;;2.90;;
62798;SDS011;48842;51.046;13.796;2023-12-28T03:26:09;3.70;;;2.67;;
62798;SDS011;48842;51.046;13.796;2023-12-28T03:28:35;3.07;;;2.27;;
62798;SDS011;48842;51.046;13.796;2023-12-28T03:31:01;2.37;;;2.27;;
62798;SDS011;48842;51.046;13.796;2023-12-28T03:33:28;2.13;;;2.03;;
62798;SDS011;48842;51.046;13.796;2023-12-28T03:35:53;6.30;;;2.13;;
62798;SDS011;48842;51.046;13.796;2023-12-28T03:38:19;2.77;;;2.40;;
62798;SDS011;48842;51.046;13.796;2023-12-28T03:40:44;1.97;;;1.80;;
62798;SDS011;48842;51.046;13.796;2023-12-28T03:43:12;5.27;;;2.50;;
62798;SDS011;48842;51.046;13.796;2023-12-28T03:45:38;3.00;;;2.80;;
62798;SDS011;48842;51.046;13.796;2023-12-28T03:48:03;3.43;;;2.33;;
62798;SDS011;48842;51.046;13.796;2023-12-28T03:50:28;2.33;;;2.00;;
62798;SDS011;48842;51.046;13.796;2023-12-28T03:52:54;2.20;;;2.00;;
62798;SDS011;48842;51.046;13.796;2023-12-28T03:55:19;3.23;;;2.10;;
62798;SDS011;48842;51.046;13.796;2023-12-28T03:57:44;2.57;;;2.37;;
62798;SDS011;48842;51.046;13.796;2023-12-28T04:00:11;1.67;;;1.57;;
62798;SDS011;48842;51.046;13.796;2023-12-28T04:02:37;1.77;;;1.67;;
62798;SDS011;48842;51.046;13.796;2023-12-28T04:05:02;3.40;;;1.90;;
62798;SDS011;48842;51.046;13.796;2023-12-28T04:07:29;3.47;;;1.90;;
62798;SDS011;48842;51.046;13.796;2023-12-28T04:09:54;4.97;;;2.07;;
62798;SDS011;48842;51.046;13.796;2023-12-28T04:12:21;2.43;;;2.23;;
62798;SDS011;48842;51.046;13.796;2023-12-28T04:14:46;3.93;;;2.77;;
62798;SDS011;48842;51.046;13.796;2023-12-28T04:17:11;3.30;;;3.00;;
62798;SDS011;48842;51.046;13.796;2023-12-28T04:19:37;4.67;;;2.63;;
62798;SDS011;48842;51.046;13.796;2023-12-28T04:22:02;3.20;;;2.20;;
62798;SDS011;48842;51.046;13.796;2023-12-28T04:24:27;3.50;;;2.60;;
62798;SDS011;48842;51.046;13.796;2023-12-28T04:26:52;4.27;;;2.70;;
62798;SDS011;48842;51.046;13.796;2023-12-28T04:29:18;2.80;;;2.50;;
62798;SDS011;48842;51.046;13.796;2023-12-28T04:31:43;3.73;;;2.57;;
62798;SDS011;48842;51.046;13.796;2023-12-28T04:34:08;4.00;;;2.67;;
62798;SDS011;48842;51.046;13.796;2023-12-28T04:36:39;2.97;;;2.67;;
62798;SDS011;48842;51.046;13.796;2023-12-28T04:39:05;2.40;;;2.30;;
62798;SDS011;48842;51.046;13.796;2023-12-28T04:41:31;2.53;;;2.33;;
62798;SDS011;48842;51.046;13.796;2023-12-28T04:43:56;2.60;;;2.30;;
62798;SDS011;48842;51.046;13.796;2023-12-28T04:46:21;4.87;;;2.47;;
62798;SDS011;48842;51.046;13.796;2023-12-28T04:48:46;2.50;;;2.30;;
62798;SDS011;48842;51.046;13.796;2023-12-28T04:51:12;3.97;;;2.20;;
62798;SDS011;48842;51.046;13.796;2023-12-28T04:53:38;3.60;;;2.63;;
62798;SDS011;48842;51.046;13.796;2023-12-28T04:56:04;2.07;;;1.87;;
62798;SDS011;48842;51.046;13.796;2023-12-28T04:58:30;3.13;;;1.97;;
62798;SDS011;48842;51.046;13.796;2023-12-28T05:00:57;2.63;;;2.43;;
62798;SDS011;48842;51.046;13.796;2023-12-28T05:03:22;2.33;;;1.70;;
62798;SDS011;48842;51.046;13.796;2023-12-28T05:05:47;1.93;;;1.70;;
62798;SDS011;48842;51.046;13.796;2023-12-28T05:08:12;1.67;;;1.57;;
62798;SDS011;48842;51.046;13.796;2023-12-28T05:10:38;2.60;;;2.10;;
62798;SDS011;48842;51.046;13.796;2023-12-28T05:13:04;2.10;;;2.00;;
62798;SDS011;48842;51.046;13.796;2023-12-28T05:15:29;3.67;;;1.90;;
62798;SDS011;48842;51.046;13.796;2023-12-28T05:17:54;2.27;;;1.73;;
62798;SDS011;48842;51.046;13.796;2023-12-28T05:20:20;2.50;;;1.83;;
62798;SDS011;48842;51.046;13.796;2023-12-28T05:22:45;2.67;;;1.90;;
62798;SDS011;48842;51.046;13.796;2023-12-28T05:25:10;2.20;;;2.00;;
62798;SDS011;48842;51.046;13.796;2023-12-28T05:27:35;3.70;;;2.20;;
62798;SDS011;48842;51.046;13.796;2023-12-28T05:30:00;1.97;;;1.73;;
62798;SDS011;48842;51.046;13.796;2023-12-28T05:32:26;1.87;;;1.77;;
62798;SDS011;48842;51.046;13.796;2023-12-28T05:34:51;1.80;;;1.70;;
62798;SDS011;48842;51.046;13.796;2023-12-28T05:37:16;5.83;;;2.27;;
62798;SDS011;48842;51.046;13.796;2023-12-28T05:39:41;4.40;;;2.60;;
62798;SDS011;48842;51.046;13.796;2023-12-28T05:42:07;2.87;;;2.57;;
62798;SDS011;48842;51.046;13.796;2023-12-28T05:44:32;3.43;;;2.90;;
62798;SDS011;48842;51.046;13.796;2023-12-28T05:46:57;4.40;;;2.30;;
62798;SDS011;48842;51.046;13.796;2023-12-28T05:49:22;2.30;;;2.10;;
62798;SDS011;48842;51.046;13.796;2023-12-28T05:51:49;3.43;;;3.13;;
62798;SDS011;48842;51.046;13.796;2023-12-28T05:54:14;3.23;;;2.90;;
62798;SDS011;48842;51.046;13.796;2023-12-28T05:56:40;3.10;;;2.47;;
62798;SDS011;48842;51.046;13.796;2023-12-28T05:59:05;4.77;;;2.10;;
62798;SDS011;48842;51.046;13.796;2023-12-28T06:01:30;6.13;;;2.23;;
62798;SDS011;48842;51.046;13.796;2023-12-28T06:03:55;29.10;;;3.10;;
62798;SDS011;48842;51.046;13.796;2023-12-28T06:06:21;3.97;;;2.37;;
62798;SDS011;48842;51.046;13.796;2023-12-28T06:08:46;5.53;;;2.40;;
62798;SDS011;48842;51.046;13.796;2023-12-28T06:11:12;2.57;;;2.37;;
62798;SDS011;48842;51.046;13.796;2023-12-28T06:13:37;2.50;;;2.33;;
62798;SDS011;48842;51.046;13.796;2023-12-28T06:16:02;4.03;;;2.63;;
62798;SDS011;48842;51.046;13.796;2023-12-28T06:18:27;2.90;;;2.53;;
62798;SDS011;48842;51.046;13.796;2023-12-28T06:20:53;3.30;;;2.77;;
62798;SDS011;48842;51.046;13.796;2023-12-28T06:23:18;2.60;;;2.40;;
62798;SDS011;48842;51.046;13.796;2023-12-28T06:25:43;2.63;;;2.43;;
62798;SDS011;48842;51.046;13.796;2023-12-28T06:28:08;2.60;;;2.40;;
62798;SDS011;48842;51.046;13.796;2023-12-28T06:30:34;3.97;;;2.60;;
62798;SDS011;48842;51.046;13.796;2023-12-28T06:32:59;2.03;;;1.83;;
62798;SDS011;48842;51.046;13.796;2023-12-28T06:35:24;2.60;;;2.10;;
62798;SDS011;48842;51.046;13.796;2023-12-28T06:37:50;2.23;;;2.13;;
62798;SDS011;48842;51.046;13.796;2023-12-28T06:40:15;2.77;;;2.53;;
62798;SDS011;48842;51.046;13.796;2023-12-28T06:42:40;2.70;;;2.00;;
62798;SDS011;48842;51.046;13.796;2023-12-28T06:45:08;3.37;;;2.90;;
62798;SDS011;48842;51.046;13.796;2023-12-28T06:47:34;2.80;;;2.30;;
62798;SDS011;48842;51.046;13.796;2023-12-28T06:49:59;4.87;;;2.40;;
62798;SDS011;48842;51.046;13.796;2023-12-28T06:52:24;3.93;;;2.40;;
62798;SDS011;48842;51.046;13.796;2023-12-28T06:54:50;5.70;;;2.00;;
62798;SDS011;48842;51.046;13.796;2023-12-28T06:57:16;2.80;;;2.60;;
62798;SDS011;48842;51.046;13.796;2023-12-28T06:59:41;3.60;;;3.00;;
62798;SDS011;48842;51.046;13.796;2023-12-28T07:02:06;4.40;;;1.90;;
62798;SDS011;48842;51.046;13.796;2023-12-28T07:04:32;6.80;;;2.63;;
62798;SDS011;48842;51.046;13.796;2023-12-28T07:06:58;4.27;;;2.27;;
62798;SDS011;48842;51.046;13.796;2023-12-28T07:09:24;4.60;;;2.20;;
62798;SDS011;48842;51.046;13.796;2023-12-28T07:11:51;4.00;;;2.67;;
62798;SDS011;48842;51.046;13.796;2023-12-28T07:14:16;2.20;;;1.90;;
62798;SDS011;48842;51.046;13.796;2023-12-28T07:16:41;6.70;;;2.60;;
62798;SDS011;48842;51.046;13.796;2023-12-28T07:19:07;2.67;;;2.47;;
62798;SDS011;48842;51.046;13.796;2023-12-28T07:21:32;2.47;;;2.30;;
62798;SDS011;48842;51.046;13.796;2023-12-28T07:23:57;4.20;;;2.60;;
62798;SDS011;48842;51.046;13.796;2023-12-28T07:26:23;6.10;;;2.33;;
62798;SDS011;48842;51.046;13.796;2023-12-28T07:28:49;5.10;;;2.33;;
62798;SDS011;48842;51.046;13.796;2023-12-28T07:31:24;2.93;;;2.50;;
62798;SDS011;48842;51.046;13.796;2023-12-28T07:33:50;3.17;;;2.40;;
62798;SDS011;48842;51.046;13.796;2023-12-28T07:36:15;2.90;;;2.03;;
62798;SDS011;48842;51.046;13.796;2023-12-28T07:38:40;2.77;;;2.17;;
62798;SDS011;48842;51.046;13.796;2023-12-28T07:41:06;7.30;;;2.07;;
62798;SDS011;48842;51.046;13.796;2023-12-28T07:43:31;6.43;;;2.50;;
62798;SDS011;48842;51.046;13.796;2023-12-28T07:45:56;1.73;;;1.63;;
62798;SDS011;48842;51.046;13.796;2023-12-28T07:48:25;2.80;;;1.53;;
62798;SDS011;48842;51.046;13.796;2023-12-28T07:50:50;4.77;;;2.10;;
62798;SDS011;48842;51.046;13.796;2023-12-28T07:53:17;2.03;;;1.83;;
62798;SDS011;48842;51.046;13.796;2023-12-28T07:55:42;1.77;;;1.67;;
62798;SDS011;48842;51.046;13.796;2023-12-28T07:58:07;1.53;;;1.43;;
62798;SDS011;48842;51.046;13.796;2023-12-28T08:00:32;2.00;;;1.80;;
62798;SDS011;48842;51.046;13.796;2023-12-28T08:02:58;1.70;;;1.60;;
62798;SDS011;48842;51.046;13.796;2023-12-28T08:05:23;2.03;;;1.90;;
62798;SDS011;48842;51.046;13.796;2023-12-28T08:07:49;4.20;;;1.90;;
62798;SDS011;48842;51.046;13.796;2023-12-28T08:10:14;4.77;;;1.60;;
62798;SDS011;48842;51.046;13.796;2023-12-28T08:12:39;2.50;;;2.30;;
62798;SDS011;48842;51.046;13.796;2023-12-28T08:15:04;3.00;;;1.77;;
62798;SDS011;48842;51.046;13.796;2023-12-28T08:17:30;2.03;;;1.83;;
62798;SDS011;48842;51.046;13.796;2023-12-28T08:19:55;1.50;;;1.40;;
62798;SDS011;48842;51.046;13.796;2023-12-28T08:22:21;1.50;;;1.40;;
62798;SDS011;48842;51.046;13.796;2023-12-28T08:24:46;1.40;;;1.30;;
62798;SDS011;48842;51.046;13.796;2023-12-28T08:27:11;3.83;;;1.50;;
62798;SDS011;48842;51.046;13.796;2023-12-28T08:29:37;1.40;;;1.30;;
62798;SDS011;48842;51.046;13.796;2023-12-28T08:32:02;1.80;;;1.70;;
62798;SDS011;48842;51.046;13.796;2023-12-28T08:34:29;3.23;;;1.60;;
62798;SDS011;48842;51.046;13.796;2023-12-28T08:36:54;1.43;;;1.33;;
62798;SDS011;48842;51.046;13.796;2023-12-28T08:39:20;1.50;;;1.40;;
62798;SDS011;48842;51.046;13.796;2023-12-28T08:41:47;1.90;;;1.80;;
62798;SDS011;48842;51.046;13.796;2023-12-28T08:44:13;1.70;;;1.60;;
62798;SDS011;48842;51.046;13.796;2023-12-28T08:46:40;1.90;;;1.60;;
62798;SDS011;48842;51.046;13.796;2023-12-28T08:49:06;4.23;;;2.00;;
62798;SDS011;48842;51.046;13.796;2023-12-28T08:51:31;5.93;;;1.97;;
62798;SDS011;48842;51.046;13.796;2023-12-28T08:53:56;6.47;;;1.97;;
62798;SDS011;48842;51.046;13.796;2023-12-28T08:56:22;1.83;;;1.73;;
62798;SDS011;48842;51.046;13.796;2023-12-28T08:58:47;1.83;;;1.50;;
62798;SDS011;48842;51.046;13.796;2023-12-28T09:01:17;1.90;;;1.80;;
62798;SDS011;48842;51.046;13.796;2023-12-28T09:03:51;1.67;;;1.57;;
62798;SDS011;48842;51.046;13.796;2023-12-28T09:06:19;1.60;;;1.43;;
62798;SDS011;48842;51.046;13.796;2023-12-28T09:08:45;3.33;;;1.90;;
62798;SDS011;48842;51.046;13.796;2023-12-28T09:11:13;1.20;;;1.20;;
62798;SDS011;48842;51.046;13.796;2023-12-28T09:13:38;3.73;;;1.93;;
62798;SDS011;48842;51.046;13.796;2023-12-28T09:16:05;1.63;;;1.53;;
62798;SDS011;48842;51.046;13.796;2023-12-28T09:18:32;1.90;;;1.67;;
62798;SDS011;48842;51.046;13.796;2023-12-28T09:20:57;1.77;;;1.67;;
62798;SDS011;48842;51.046;13.796;2023-12-28T09:23:24;1.20;;;1.20;;
62798;SDS011;48842;51.046;13.796;2023-12-28T09:25:49;2.70;;;2.27;;
62798;SDS011;48842;51.046;13.796;2023-12-28T09:28:14;1.47;;;1.37;;
62798;SDS011;48842;51.046;13.796;2023-12-28T09:30:40;2.67;;;1.63;;
62798;SDS011;48842;51.046;13.796;2023-12-28T09:33:05;2.30;;;1.47;;
62798;SDS011;48842;51.046;13.796;2023-12-28T09:35:31;3.27;;;1.53;;
62798;SDS011;48842;51.046;13.796;2023-12-28T09:37:56;1.90;;;1.80;;
62798;SDS011;48842;51.046;13.796;2023-12-28T09:40:21;1.73;;;1.63;;
62798;SDS011;48842;51.046;13.796;2023-12-28T09:42:48;1.37;;;1.27;;
62798;SDS011;48842;51.046;13.796;2023-12-28T09:45:22;3.53;;;1.60;;
62798;SDS011;48842;51.046;13.796;2023-12-28T09:47:47;1.50;;;1.40;;
62798;SDS011;48842;51.046;13.796;2023-12-28T09:50:15;1.70;;;1.60;;
62798;SDS011;48842;51.046;13.796;2023-12-28T09:52:43;1.87;;;1.77;;
62798;SDS011;48842;51.046;13.796;2023-12-28T09:55:09;1.60;;;1.50;;
62798;SDS011;48842;51.046;13.796;2023-12-28T09:57:34;1.30;;;1.30;;
62798;SDS011;48842;51.046;13.796;2023-12-28T10:00:00;1.70;;;1.57;;
62798;SDS011;48842;51.046;13.796;2023-12-28T10:02:26;3.10;;;1.70;;
62798;SDS011;48842;51.046;13.796;2023-12-28T10:04:52;1.53;;;1.30;;
62798;SDS011;48842;51.046;13.796;2023-12-28T10:07:17;1.50;;;1.40;;
62798;SDS011;48842;51.046;13.796;2023-12-28T10:09:43;1.63;;;1.53;;
62798;SDS011;48842;51.046;13.796;2023-12-28T10:12:10;1.50;;;1.40;;
62798;SDS011;48842;51.046;13.796;2023-12-28T10:14:35;1.93;;;1.60;;
62798;SDS011;48842;51.046;13.796;2023-12-28T10:17:00;1.37;;;1.27;;
62798;SDS011;48842;51.046;13.796;2023-12-28T10:19:27;1.77;;;1.60;;
62798;SDS011;48842;51.046;13.796;2023-12-28T10:21:52;1.93;;;1.77;;
62798;SDS011;48842;51.046;13.796;2023-12-28T10:24:18;2.17;;;1.33;;
62798;SDS011;48842;51.046;13.796;2023-12-28T10:26:43;1.80;;;1.03;;
62798;SDS011;48842;51.046;13.796;2023-12-28T10:29:08;3.90;;;1.70;;
62798;SDS011;48842;51.046;13.796;2023-12-28T10:31:33;1.90;;;1.67;;
62798;SDS011;48842;51.046;13.796;2023-12-28T10:33:59;1.53;;;1.40;;
62798;SDS011;48842;51.046;13.796;2023-12-28T10:36:27;3.43;;;2.23;;
62798;SDS011;48842;51.046;13.796;2023-12-28T10:38:52;2.00;;;1.80;;
62798;SDS011;48842;51.046;13.796;2023-12-28T10:41:18;5.10;;;3.40;;
62798;SDS011;48842;51.046;13.796;2023-12-28T10:46:13;1.70;;;1.60;;
62798;SDS011;48842;51.046;13.796;2023-12-28T10:48:46;4.87;;;1.97;;
62798;SDS011;48842;51.046;13.796;2023-12-28T10:51:16;5.40;;;1.60;;
62798;SDS011;48842;51.046;13.796;2023-12-28T10:53:45;3.80;;;1.87;;
62798;SDS011;48842;51.046;13.796;2023-12-28T10:58:49;1.97;;;1.50;;
62798;SDS011;48842;51.046;13.796;2023-12-28T11:01:35;4.50;;;1.63;;
62798;SDS011;48842;51.046;13.796;2023-12-28T11:04:03;3.43;;;1.60;;
62798;SDS011;48842;51.046;13.796;2023-12-28T11:06:35;3.30;;;1.90;;
62798;SDS011;48842;51.046;13.796;2023-12-28T11:09:01;3.53;;;2.80;;
62798;SDS011;48842;51.046;13.796;2023-12-28T11:11:28;6.60;;;3.00;;
62798;SDS011;48842;51.046;13.796;2023-12-28T11:13:55;1.90;;;1.63;;
62798;SDS011;48842;51.046;13.796;2023-12-28T11:16:21;2.30;;;2.10;;
62798;SDS011;48842;51.046;13.796;2023-12-28T11:18:47;2.20;;;2.00;;
62798;SDS011;48842;51.046;13.796;2023-12-28T11:21:15;2.00;;;1.90;;
62798;SDS011;48842;51.046;13.796;2023-12-28T11:23:42;3.33;;;2.30;;
62798;SDS011;48842;51.046;13.796;2023-12-28T11:26:15;1.57;;;1.47;;
62798;SDS011;48842;51.046;13.796;2023-12-28T11:28:46;2.60;;;1.87;;
62798;SDS011;48842;51.046;13.796;2023-12-28T11:31:18;1.93;;;1.47;;
62798;SDS011;48842;51.046;13.796;2023-12-28T11:33:47;2.13;;;1.80;;
62798;SDS011;48842;51.046;13.796;2023-12-28T11:36:24;5.87;;;1.80;;
62798;SDS011;48842;51.046;13.796;2023-12-28T11:39:01;3.80;;;1.40;;
62798;SDS011;48842;51.046;13.796;2023-12-28T11:41:27;2.67;;;1.57;;
62798;SDS011;48842;51.046;13.796;2023-12-28T11:43:53;1.93;;;1.83;;
62798;SDS011;48842;51.046;13.796;2023-12-28T11:46:20;1.80;;;1.30;;
62798;SDS011;48842;51.046;13.796;2023-12-28T11:48:46;2.50;;;1.43;;
62798;SDS011;48842;51.046;13.796;2023-12-28T11:51:11;1.30;;;1.20;;
62798;SDS011;48842;51.046;13.796;2023-12-28T11:53:36;2.80;;;1.53;;
62798;SDS011;48842;51.046;13.796;2023-12-28T11:56:03;1.40;;;1.40;;
62798;SDS011;48842;51.046;13.796;2023-12-28T11:58:29;1.77;;;1.60;;
62798;SDS011;48842;51.046;13.796;2023-12-28T12:00:55;2.43;;;1.43;;
62798;SDS011;48842;51.046;13.796;2023-12-28T12:03:20;4.13;;;1.87;;
62798;SDS011;48842;51.046;13.796;2023-12-28T12:05:45;3.17;;;1.77;;
62798;SDS011;48842;51.046;13.796;2023-12-28T12:08:11;1.63;;;1.53;;
62798;SDS011;48842;51.046;13.796;2023-12-28T12:10:41;4.30;;;1.70;;
62798;SDS011;48842;51.046;13.796;2023-12-28T12:13:07;4.50;;;1.57;;
62798;SDS011;48842;51.046;13.796;2023-12-28T12:15:33;2.63;;;1.70;;
62798;SDS011;48842;51.046;13.796;2023-12-28T12:17:58;1.60;;;1.50;;
62798;SDS011;48842;51.046;13.796;2023-12-28T12:20:23;3.00;;;1.60;;
62798;SDS011;48842;51.046;13.796;2023-12-28T12:22:49;3.53;;;2.10;;
62798;SDS011;48842;51.046;13.796;2023-12-28T12:25:14;2.00;;;1.90;;
62798;SDS011;48842;51.046;13.796;2023-12-28T12:27:41;1.50;;;1.40;;
62798;SDS011;48842;51.046;13.796;2023-12-28T12:30:06;1.87;;;1.67;;
62798;SDS011;48842;51.046;13.796;2023-12-28T12:32:32;1.87;;;1.73;;
62798;SDS011;48842;51.046;13.796;2023-12-28T12:34:58;3.67;;;1.70;;
62798;SDS011;48842;51.046;13.796;2023-12-28T12:37:23;2.10;;;1.90;;
62798;SDS011;48842;51.046;13.796;2023-12-28T12:39:49;1.60;;;1.50;;
62798;SDS011;48842;51.046;13.796;2023-12-28T12:42:15;1.63;;;1.53;;
62798;SDS011;48842;51.046;13.796;2023-12-28T12:44:41;3.30;;;1.97;;
62798;SDS011;48842;51.046;13.796;2023-12-28T12:47:07;1.70;;;1.60;;
62798;SDS011;48842;51.046;13.796;2023-12-28T12:49:32;1.40;;;1.30;;
62798;SDS011;48842;51.046;13.796;2023-12-28T12:51:57;1.60;;;1.50;;
62798;SDS011;48842;51.046;13.796;2023-12-28T12:54:22;1.57;;;1.47;;
62798;SDS011;48842;51.046;13.796;2023-12-28T12:56:49;1.40;;;1.30;;
62798;SDS011;48842;51.046;13.796;2023-12-28T12:59:15;1.40;;;1.30;;
62798;SDS011;48842;51.046;13.796;2023-12-28T13:01:42;1.23;;;1.07;;
62798;SDS011;48842;51.046;13.796;2023-12-28T13:04:08;2.00;;;1.80;;
62798;SDS011;48842;51.046;13.796;2023-12-28T13:06:34;3.40;;;1.77;;
62798;SDS011;48842;51.046;13.796;2023-12-28T13:08:59;4.00;;;1.20;;
62798;SDS011;48842;51.046;13.796;2023-12-28T13:11:25;1.70;;;1.40;;
62798;SDS011;48842;51.046;13.796;2023-12-28T13:13:51;1.60;;;1.50;;
62798;SDS011;48842;51.046;13.796;2023-12-28T13:16:17;1.93;;;1.60;;
62798;SDS011;48842;51.046;13.796;2023-12-28T13:18:42;2.30;;;1.70;;
62798;SDS011;48842;51.046;13.796;2023-12-28T13:21:07;1.67;;;1.57;;
62798;SDS011;48842;51.046;13.796;2023-12-28T13:23:33;1.40;;;1.30;;
62798;SDS011;48842;51.046;13.796;2023-12-28T13:25:59;2.37;;;2.13;;
62798;SDS011;48842;51.046;13.796;2023-12-28T13:28:25;1.47;;;1.37;;
62798;SDS011;48842;51.046;13.796;2023-12-28T13:30:50;1.87;;;1.60;;
62798;SDS011;48842;51.046;13.796;2023-12-28T13:33:16;1.37;;;1.17;;
62798;SDS011;48842;51.046;13.796;2023-12-28T13:35:41;2.40;;;1.77;;
62798;SDS011;48842;51.046;13.796;2023-12-28T13:38:07;6.23;;;1.90;;
62798;SDS011;48842;51.046;13.796;2023-12-28T13:40:33;2.17;;;1.97;;
62798;SDS011;48842;51.046;13.796;2023-12-28T13:42:58;2.37;;;2.17;;
62798;SDS011;48842;51.046;13.796;2023-12-28T13:45:23;2.83;;;1.87;;
62798;SDS011;48842;51.046;13.796;2023-12-28T13:47:49;1.67;;;1.57;;
62798;SDS011;48842;51.046;13.796;2023-12-28T13:50:14;1.60;;;1.50;;
62798;SDS011;48842;51.046;13.796;2023-12-28T13:52:39;2.37;;;1.60;;
62798;SDS011;48842;51.046;13.796;2023-12-28T13:55:05;2.53;;;1.33;;
62798;SDS011;48842;51.046;13.796;2023-12-28T13:57:31;3.37;;;1.87;;
62798;SDS011;48842;51.046;13.796;2023-12-28T13:59:57;1.53;;;1.37;;
62798;SDS011;48842;51.046;13.796;2023-12-28T14:02:25;1.63;;;1.53;;
62798;SDS011;48842;51.046;13.796;2023-12-28T14:04:51;4.60;;;1.50;;
62798;SDS011;48842;51.046;13.796;2023-12-28T14:07:16;2.80;;;2.10;;
62798;SDS011;48842;51.046;13.796;2023-12-28T14:09:41;1.33;;;1.23;;
62798;SDS011;48842;51.046;13.796;2023-12-28T14:12:06;1.70;;;1.60;;
62798;SDS011;48842;51.046;13.796;2023-12-28T14:14:32;1.70;;;1.60;;
62798;SDS011;48842;51.046;13.796;2023-12-28T14:16:57;2.30;;;2.03;;
62798;SDS011;48842;51.046;13.796;2023-12-28T14:19:22;1.30;;;1.20;;
62798;SDS011;48842;51.046;13.796;2023-12-28T14:21:48;2.63;;;2.43;;
62798;SDS011;48842;51.046;13.796;2023-12-28T14:24:14;2.33;;;1.40;;
62798;SDS011;48842;51.046;13.796;2023-12-28T14:26:41;2.07;;;1.97;;
62798;SDS011;48842;51.046;13.796;2023-12-28T14:29:08;2.03;;;1.83;;
62798;SDS011;48842;51.046;13.796;2023-12-28T14:31:33;1.60;;;1.50;;